Time;durP1;ratioP1;P1;durP2;ratioP2;P2;SDS_P1;SDS_P2;PMS_P1;PMS_P2;Temp;Humidity;BMP_temperature;BMP_pressure;BME280_temperature;BME280_humidity;BME280_pressure;Samples;Min_cycle;Max_cycle;Signal;HPM_P1;HPM_P2
2022/03/29 03:02:38;;;;;;;4.28;3.42;;;19.40;45.60;;;;;;5105683;23;46649;-63
2022/03/29 03:05:04;;;;;;;4.47;3.40;;;19.40;45.60;;;;;;4921757;28;45269;-62
2022/03/29 03:07:29;;;;;;;4.15;3.38;;;19.40;45.60;;;;;;4927103;28;45145;-61
2022/03/29 03:09:55;;;;;;;5.30;3.65;;;19.40;45.60;;;;;;4932408;28;45192;-60
2022/03/29 03:12:21;;;;;;;4.78;3.53;;;19.40;45.60;;;;;;4917380;28;45467;-57
2022/03/29 03:14:47;;;;;;;4.47;3.70;;;19.40;45.60;;;;;;4918561;28;46998;-58
2022/03/29 03:17:13;;;;;;;4.43;3.53;;;19.30;45.60;;;;;;4910208;28;45537;-58
2022/03/29 03:19:38;;;;;;;4.60;3.20;;;19.40;45.70;;;;;;4930619;28;45136;-66
2022/03/29 03:22:04;;;;;;;6.03;3.83;;;19.40;45.70;;;;;;4923943;28;45187;-62
2022/03/29 03:24:30;;;;;;;5.68;3.65;;;19.30;45.70;;;;;;4941961;28;45428;-58
2022/03/29 03:26:55;;;;;;;5.32;3.83;;;19.30;45.70;;;;;;4949599;28;44641;-58
2022/03/29 03:29:21;;;;;;;4.20;3.15;;;19.30;45.70;;;;;;4941989;28;45158;-58
2022/03/29 03:31:47;;;;;;;4.63;3.33;;;19.30;45.70;;;;;;4932374;28;47414;-62
2022/03/29 03:34:12;;;;;;;6.50;3.85;;;19.30;45.70;;;;;;4947030;28;45951;-62
2022/03/29 03:36:38;;;;;;;6.30;3.72;;;19.30;45.70;;;;;;4938799;28;45631;-61
2022/03/29 03:39:04;;;;;;;5.30;4.03;;;19.30;45.70;;;;;;4944426;28;45295;-60
2022/03/29 03:41:29;;;;;;;5.57;3.67;;;19.30;45.70;;;;;;4918789;28;44771;-62
2022/03/29 03:43:55;;;;;;;5.78;4.15;;;19.30;45.80;;;;;;4937080;28;45839;-56
2022/03/29 03:46:20;;;;;;;3.95;3.33;;;19.30;45.80;;;;;;4942032;28;45112;-57
2022/03/29 03:48:46;;;;;;;5.05;3.38;;;19.30;45.80;;;;;;4935759;28;45239;-59
2022/03/29 03:51:11;;;;;;;5.53;3.67;;;19.30;45.80;;;;;;4940636;28;46007;-55
2022/03/29 03:53:37;;;;;;;6.70;3.97;;;19.30;45.80;;;;;;4924574;28;46158;-59
2022/03/29 03:56:03;;;;;;;4.03;3.45;;;19.30;45.80;;;;;;4949141;28;45414;-58
2022/03/29 03:58:29;;;;;;;5.32;4.22;;;19.30;46.40;;;;;;4927239;28;45408;-60
2022/03/29 04:00:54;;;;;;;4.80;3.38;;;19.30;45.80;;;;;;4933798;28;45567;-61
2022/03/29 04:03:20;;;;;;;4.40;3.53;;;19.30;45.80;;;;;;4938273;28;45975;-56
2022/03/29 04:05:45;;;;;;;5.32;3.72;;;19.30;45.90;;;;;;4925883;28;45662;-56
2022/03/29 04:08:11;;;;;;;5.53;3.70;;;19.30;45.90;;;;;;4947972;28;45368;-59
2022/03/29 04:10:37;;;;;;;5.07;3.30;;;19.20;45.80;;;;;;4936414;28;44976;-58
2022/03/29 04:13:03;;;;;;;5.75;3.63;;;19.20;45.80;;;;;;4929341;28;46729;-52
2022/03/29 04:15:28;;;;;;;5.75;3.58;;;19.20;45.90;;;;;;4924411;28;45465;-60
2022/03/29 04:17:54;;;;;;;4.50;3.40;;;19.20;45.90;;;;;;4949682;28;44913;-61
2022/03/29 04:20:20;;;;;;;5.38;3.58;;;19.20;45.90;;;;;;4942921;28;45196;-56
2022/03/29 04:22:45;;;;;;;3.75;3.33;;;19.20;45.90;;;;;;4939481;28;46295;-59
2022/03/29 04:25:11;;;;;;;5.90;3.90;;;19.20;45.90;;;;;;4938170;28;45289;-60
2022/03/29 04:27:37;;;;;;;6.75;4.22;;;19.20;45.90;;;;;;4941378;28;45198;-59
2022/03/29 04:30:03;;;;;;;3.47;3.03;;;19.20;45.90;;;;;;4935769;28;45500;-58
2022/03/29 04:32:29;;;;;;;5.60;3.75;;;19.20;45.90;;;;;;4922891;28;46883;-62
2022/03/29 04:34:54;;;;;;;4.57;3.88;;;19.20;45.90;;;;;;4919833;28;45385;-57
2022/03/29 04:37:20;;;;;;;4.95;3.88;;;19.20;45.90;;;;;;4943901;28;44973;-61
2022/03/29 04:39:46;;;;;;;5.90;3.85;;;19.20;46.00;;;;;;4943366;28;45184;-60
2022/03/29 04:42:12;;;;;;;4.93;3.97;;;19.20;45.90;;;;;;4940304;28;45062;-59
2022/03/29 04:44:37;;;;;;;5.28;3.92;;;19.20;45.90;;;;;;4938450;28;45195;-56
2022/03/29 04:47:04;;;;;;;4.75;3.80;;;19.20;46.00;;;;;;4942187;28;45325;-56
2022/03/29 04:49:29;;;;;;;5.00;4.25;;;19.20;46.00;;;;;;4937835;28;45194;-61
2022/03/29 04:51:55;;;;;;;4.60;3.70;;;19.10;45.90;;;;;;4934977;28;45873;-56
2022/03/29 04:54:20;;;;;;;5.38;4.05;;;19.20;46.00;;;;;;4937814;28;45251;-57
2022/03/29 04:56:46;;;;;;;6.30;3.58;;;19.10;46.00;;;;;;4934168;28;45353;-58
2022/03/29 04:59:12;;;;;;;4.30;3.60;;;19.10;46.00;;;;;;4939520;28;45394;-59
2022/03/29 05:01:39;;;;;;;4.47;3.95;;;19.10;46.00;;;;;;4935242;28;46006;-62
2022/03/29 05:04:05;;;;;;;6.63;3.90;;;19.10;46.00;;;;;;4924058;28;45264;-60
2022/03/29 05:06:30;;;;;;;4.53;3.60;;;19.10;46.00;;;;;;4938118;28;45424;-60
2022/03/29 05:08:56;;;;;;;5.07;3.83;;;19.10;46.00;;;;;;4954041;28;45481;-64
2022/03/29 05:11:21;;;;;;;6.18;3.75;;;19.10;46.10;;;;;;4925068;28;45508;-58
2022/03/29 05:13:47;;;;;;;6.10;4.00;;;19.10;46.10;;;;;;4934611;28;44978;-57
2022/03/29 05:16:13;;;;;;;5.03;3.95;;;19.10;46.10;;;;;;4939835;28;46182;-60
2022/03/29 05:18:38;;;;;;;5.63;3.78;;;19.10;46.10;;;;;;4945641;28;45464;-57
2022/03/29 05:21:04;;;;;;;6.00;3.85;;;19.10;46.10;;;;;;4949066;28;45967;-57
2022/03/29 05:23:29;;;;;;;5.60;4.10;;;19.10;46.10;;;;;;4934661;28;45196;-63
2022/03/29 05:25:55;;;;;;;5.55;3.67;;;19.10;46.10;;;;;;4940340;28;45144;-58
2022/03/29 05:28:21;;;;;;;5.80;3.83;;;19.10;46.10;;;;;;4948407;28;45330;-58
2022/03/29 05:30:46;;;;;;;5.30;3.65;;;19.10;46.10;;;;;;4955904;28;45845;-58
2022/03/29 05:33:15;;;;;;;4.38;3.83;;;19.10;46.10;;;;;;4947374;28;45292;-60
2022/03/29 05:35:41;;;;;;;5.40;3.60;;;19.10;46.20;;;;;;4945127;28;45230;-58
2022/03/29 05:38:07;;;;;;;6.28;3.80;;;19.00;46.10;;;;;;4925915;28;45716;-61
2022/03/29 05:40:32;;;;;;;5.95;3.78;;;19.00;46.10;;;;;;4933749;28;46396;-57
2022/03/29 05:42:58;;;;;;;5.85;4.28;;;19.10;46.10;;;;;;4936739;28;44619;-61
2022/03/29 05:45:24;;;;;;;5.88;4.05;;;19.10;46.10;;;;;;4938139;28;45005;-60
2022/03/29 05:50:34;;;;;;;4.05;3.63;;;19.00;46.20;;;;;;4944917;28;46066;-58
2022/03/29 05:53:01;;;;;;;5.55;4.35;;;19.00;46.20;;;;;;4937524;28;45219;-57
2022/03/29 05:55:27;;;;;;;6.30;3.78;;;19.00;46.10;;;;;;4937001;28;45241;-59
2022/03/29 05:57:53;;;;;;;6.90;3.88;;;19.00;46.10;;;;;;4935804;28;46699;-63
2022/03/29 06:00:23;;;;;;;5.78;4.25;;;19.00;46.10;;;;;;4945712;28;46012;-58
2022/03/29 06:02:49;;;;;;;5.43;3.78;;;19.10;46.20;;;;;;4945848;28;44734;-58
2022/03/29 06:05:14;;;;;;;5.20;4.05;;;19.10;46.20;;;;;;4927465;28;45259;-56
2022/03/29 06:07:40;;;;;;;5.88;4.00;;;19.10;46.10;;;;;;4937716;28;45265;-58
2022/03/29 06:10:06;;;;;;;4.97;3.92;;;19.10;46.10;;;;;;4936211;28;46175;-59
2022/03/29 06:12:32;;;;;;;5.57;4.38;;;19.10;46.00;;;;;;4917636;28;45241;-59
2022/03/29 06:15:01;;;;;;;9.35;5.15;;;19.20;45.80;;;;;;4920893;28;45137;-57
2022/03/29 06:17:27;;;;;;;10.48;5.70;;;19.20;45.10;;;;;;4911259;28;45463;-56
2022/03/29 06:19:54;;;;;;;13.40;6.32;;;19.20;44.70;;;;;;4919725;28;45249;-54
2022/03/29 06:22:20;;;;;;;10.93;6.70;;;19.10;44.10;;;;;;4937817;28;45075;-57
2022/03/29 06:24:46;;;;;;;12.82;6.85;;;19.10;43.90;;;;;;4936507;28;45185;-59
2022/03/29 06:27:11;;;;;;;9.13;7.50;;;19.10;43.50;;;;;;4944388;28;45208;-59
2022/03/29 06:29:37;;;;;;;12.15;7.13;;;19.10;43.40;;;;;;4941813;28;46227;-59
2022/03/29 06:32:03;;;;;;;11.13;7.32;;;19.10;43.00;;;;;;4944667;28;45137;-58
2022/03/29 06:34:29;;;;;;;12.77;7.95;;;19.10;42.80;;;;;;4922915;28;45376;-61
2022/03/29 06:36:55;;;;;;;10.23;7.07;;;19.00;42.80;;;;;;4934317;28;45219;-55
2022/03/29 06:39:21;;;;;;;11.00;7.97;;;19.00;43.00;;;;;;4919449;28;46082;-60
2022/03/29 06:41:47;;;;;;;12.85;7.00;;;19.00;43.10;;;;;;4945142;28;44674;-55
2022/03/29 06:44:13;;;;;;;9.85;6.43;;;19.00;43.20;;;;;;4936271;28;44680;-59
2022/03/29 06:46:39;;;;;;;12.35;6.65;;;19.00;43.30;;;;;;4936298;28;45265;-59
2022/03/29 06:49:06;;;;;;;11.10;6.53;;;19.00;43.50;;;;;;4929639;28;47107;-58
2022/03/29 06:51:35;;;;;;;8.75;6.40;;;19.10;43.60;;;;;;4936317;28;45550;-58
2022/03/29 06:54:01;;;;;;;11.25;6.82;;;19.10;43.60;;;;;;4936942;28;45248;-55
2022/03/29 06:56:28;;;;;;;7.53;5.75;;;19.10;43.70;;;;;;4935861;28;45408;-63
2022/03/29 06:58:54;;;;;;;9.05;6.53;;;19.10;43.80;;;;;;4934727;28;45519;-59
2022/03/29 07:01:19;;;;;;;8.10;6.22;;;19.20;43.90;;;;;;4926179;28;45636;-57
2022/03/29 07:03:45;;;;;;;8.07;5.47;;;19.20;43.90;;;;;;4945199;28;45231;-63
2022/03/29 07:06:11;;;;;;;9.23;5.63;;;19.20;43.90;;;;;;4946679;28;44917;-59
2022/03/29 07:11:15;;;;;;;9.38;6.28;;;19.20;44.00;;;;;;4938859;28;45244;-56
2022/03/29 07:11:24;;;;;;;8.93;5.95;;;19.20;44.10;;;;;;4935559;28;45172;-56
2022/03/29 07:13:50;;;;;;;7.20;5.55;;;19.20;44.20;;;;;;4936959;28;44983;-56
2022/03/29 07:16:15;;;;;;;9.63;5.85;;;19.20;44.30;;;;;;4937826;28;45054;-55
2022/03/29 07:18:41;;;;;;;7.18;5.47;;;19.30;44.30;;;;;;4901449;28;46034;-55
2022/03/29 07:21:07;;;;;;;8.00;5.60;;;19.30;44.30;;;;;;4935507;28;45442;-55
2022/03/29 07:23:32;;;;;;;7.93;5.32;;;19.30;44.40;;;;;;4936664;28;45217;-53
2022/03/29 07:25:58;;;;;;;9.73;5.63;;;19.30;44.40;;;;;;4919436;28;44637;-57
2022/03/29 07:28:24;;;;;;;6.85;5.20;;;19.30;44.40;;;;;;4931279;28;45491;-56
2022/03/29 07:30:50;;;;;;;9.13;5.40;;;19.30;44.40;;;;;;4945004;28;45141;-57
2022/03/29 07:33:17;;;;;;;8.82;5.20;;;19.30;44.40;;;;;;4944272;28;45262;-57
2022/03/29 07:35:43;;;;;;;7.82;5.68;;;19.30;44.50;;;;;;4928100;28;45182;-59
2022/03/29 07:38:09;;;;;;;8.35;5.50;;;19.40;44.60;;;;;;4932935;28;46836;-62
2022/03/29 07:40:35;;;;;;;6.90;4.50;;;19.40;44.60;;;;;;4939096;28;45284;-61
2022/03/29 07:43:00;;;;;;;8.93;5.30;;;19.40;44.70;;;;;;4935240;28;45412;-62
2022/03/29 07:45:26;;;;;;;6.97;5.07;;;19.40;44.90;;;;;;4937593;28;45519;-53
2022/03/29 07:47:55;;;;;;;6.18;4.95;;;19.40;44.90;;;;;;4935196;28;46086;-54
2022/03/29 07:50:21;;;;;;;7.97;5.50;;;19.40;44.70;;;;;;4943218;28;45022;-62
2022/03/29 07:52:47;;;;;;;6.65;5.03;;;19.50;44.80;;;;;;4933070;28;45253;-60
2022/03/29 07:55:12;;;;;;;9.10;5.35;;;19.50;45.00;;;;;;4918011;28;45665;-56
2022/03/29 07:57:39;;;;;;;8.60;5.10;;;19.50;44.90;;;;;;4917615;28;46195;-56
2022/03/29 08:00:31;;;;;;;13.15;5.95;;;19.50;44.80;;;;;;4914114;28;45619;-60
2022/03/29 08:02:52;;;;;;;6.35;4.78;;;19.50;44.80;;;;;;4912571;28;45398;-56
2022/03/29 08:05:18;;;;;;;8.23;5.47;;;19.50;44.80;;;;;;4945987;28;45354;-60
2022/03/29 08:07:44;;;;;;;7.72;5.10;;;19.50;44.80;;;;;;4936297;28;45873;-59
2022/03/29 08:10:10;;;;;;;9.50;5.05;;;19.50;44.80;;;;;;4955493;28;45043;-59
2022/03/29 08:12:36;;;;;;;6.78;4.88;;;19.50;44.80;;;;;;4934275;28;45217;-60
2022/03/29 08:15:02;;;;;;;6.25;5.00;;;19.60;44.90;;;;;;4936345;28;45353;-55
2022/03/29 08:17:27;;;;;;;6.10;4.63;;;19.60;44.90;;;;;;4936267;28;45216;-57
2022/03/29 08:19:53;;;;;;;7.28;5.10;;;19.60;44.90;;;;;;4934576;28;45168;-60
2022/03/29 08:22:18;;;;;;;6.82;4.88;;;19.60;44.90;;;;;;4934299;28;44956;-56
2022/03/29 08:24:44;;;;;;;7.30;5.00;;;19.60;45.00;;;;;;4922848;28;45199;-55
2022/03/29 08:27:10;;;;;;;6.65;5.32;;;19.70;45.00;;;;;;4930354;28;45943;-57
2022/03/29 08:29:37;;;;;;;6.78;4.72;;;19.70;45.00;;;;;;4936473;28;44621;-59
2022/03/29 08:32:02;;;;;;;6.40;4.65;;;19.70;45.00;;;;;;4922013;28;45372;-57
2022/03/29 08:34:28;;;;;;;7.57;4.90;;;19.70;45.00;;;;;;4937815;28;45214;-59
2022/03/29 08:36:54;;;;;;;6.88;4.80;;;19.70;45.00;;;;;;4935502;28;45909;-63
2022/03/29 08:39:19;;;;;;;5.35;4.20;;;19.70;45.00;;;;;;4938382;28;46103;-58
2022/03/29 08:41:47;;;;;;;8.00;4.63;;;19.80;45.10;;;;;;4940274;28;45062;-55
2022/03/29 08:44:12;;;;;;;6.80;4.85;;;19.80;45.10;;;;;;4917339;28;45426;-60
2022/03/29 08:46:39;;;;;;;7.72;4.93;;;19.80;45.10;;;;;;4935674;28;46078;-61
2022/03/29 08:49:06;;;;;;;7.60;4.90;;;19.80;45.10;;;;;;4935303;28;45176;-62
2022/03/29 08:51:31;;;;;;;7.40;4.82;;;19.80;45.10;;;;;;4930072;28;45152;-61
2022/03/29 08:53:57;;;;;;;5.82;4.53;;;19.80;45.10;;;;;;4939526;28;44690;-62
2022/03/29 08:56:23;;;;;;;6.95;4.78;;;19.80;45.10;;;;;;4934693;28;46266;-61
2022/03/29 08:58:48;;;;;;;5.70;4.30;;;19.80;45.10;;;;;;4935359;28;45541;-57
2022/03/29 09:01:19;;;;;;;7.03;4.22;;;19.90;45.20;;;;;;4936580;28;45585;-59
2022/03/29 09:03:44;;;;;;;8.75;4.75;;;19.90;45.20;;;;;;4953644;28;45326;-57
2022/03/29 09:06:10;;;;;;;5.82;4.55;;;19.90;45.20;;;;;;4944878;28;46040;-65
2022/03/29 09:08:43;;;;;;;4.53;3.92;;;19.90;45.20;;;;;;4931450;28;45093;-59
2022/03/29 09:11:09;;;;;;;5.90;4.72;;;20.00;45.30;;;;;;4936607;28;45105;-57
2022/03/29 09:13:34;;;;;;;6.55;4.68;;;20.00;45.30;;;;;;4929970;28;45283;-60
2022/03/29 09:16:02;;;;;;;7.95;4.35;;;20.00;45.30;;;;;;4942028;28;45969;-60
2022/03/29 09:18:28;;;;;;;4.18;3.40;;;20.00;45.30;;;;;;4943384;28;45086;-62
2022/03/29 09:21:12;;;;;;;5.32;3.63;;;20.00;45.30;;;;;;4938100;28;45126;-56
2022/03/29 09:24:04;;;;;;;5.05;3.63;;;20.10;45.40;;;;;;4934478;28;45669;-59
2022/03/29 09:26:33;;;;;;;5.80;4.40;;;20.00;45.50;;;;;;4935129;28;46069;-63
2022/03/29 09:28:59;;;;;;;7.43;4.82;;;20.10;45.40;;;;;;4929917;28;45027;-66
2022/03/29 09:31:27;;;;;;;6.72;4.65;;;20.10;45.40;;;;;;4911250;28;45622;-59
2022/03/29 09:34:14;;;;;;;5.85;4.47;;;20.10;45.40;;;;;;4945952;28;45563;-65
2022/03/29 09:36:50;;;;;;;6.53;4.80;;;20.10;45.40;;;;;;4936139;28;46161;-55
2022/03/29 09:39:29;;;;;;;6.68;4.25;;;20.10;45.40;;;;;;4917103;28;45527;-58
2022/03/29 09:41:57;;;;;;;6.20;4.18;;;20.20;45.50;;;;;;4937060;28;45285;-62
2022/03/29 09:44:22;;;;;;;5.55;4.57;;;20.10;45.30;;;;;;4934873;28;45259;-60
2022/03/29 09:46:59;;;;;;;7.25;4.30;;;20.20;45.30;;;;;;4899172;28;45670;-63
2022/03/29 09:49:25;;;;;;;6.38;4.53;;;20.20;45.40;;;;;;4915660;28;45073;-64
2022/03/29 09:52:10;;;;;;;5.20;4.70;;;20.20;45.40;;;;;;4937879;28;45465;-61
2022/03/29 09:54:36;;;;;;;5.57;4.57;;;20.20;45.40;;;;;;4932391;28;45337;-62
2022/03/29 09:57:02;;;;;;;6.75;4.47;;;20.20;45.30;;;;;;4937182;28;46149;-62
2022/03/29 09:59:28;;;;;;;5.35;4.18;;;20.20;45.30;;;;;;4939496;28;44985;-57
2022/03/29 10:01:56;;;;;;;5.65;4.25;;;20.20;45.30;;;;;;4929552;28;45422;-58
2022/03/29 10:04:23;;;;;;;9.82;4.57;;;20.30;45.40;;;;;;4945254;28;44768;-58
2022/03/29 10:06:50;;;;;;;7.38;4.95;;;20.30;45.40;;;;;;4934244;28;46351;-62
2022/03/29 10:09:27;;;;;;;6.60;4.72;;;20.30;45.40;;;;;;4938296;28;45110;-52
2022/03/29 10:12:03;;;;;;;7.07;4.90;;;20.30;45.30;;;;;;4921295;28;45653;-53
2022/03/29 10:14:30;;;;;;;5.20;4.18;;;20.30;45.30;;;;;;4925139;28;45108;-55
2022/03/29 10:16:56;;;;;;;7.22;4.80;;;20.40;45.20;;;;;;4929640;28;48872;-53
2022/03/29 10:19:22;;;;;;;6.25;4.47;;;20.40;45.20;;;;;;4941621;28;45486;-51
2022/03/29 10:21:47;;;;;;;5.80;4.15;;;20.40;45.20;;;;;;4944389;28;44623;-50
2022/03/29 10:24:14;;;;;;;5.80;3.90;;;20.40;45.20;;;;;;4951752;28;45322;-52
2022/03/29 10:26:43;;;;;;;6.55;4.28;;;20.40;45.20;;;;;;4947156;28;44950;-51
2022/03/29 10:29:09;;;;;;;6.13;4.53;;;20.40;45.30;;;;;;4934314;28;45294;-53
2022/03/29 10:31:48;;;;;;;6.05;4.22;;;20.40;45.20;;;;;;4920250;28;45336;-56
2022/03/29 10:34:16;;;;;;;6.40;4.15;;;20.40;45.20;;;;;;4909380;28;45477;-50
2022/03/29 10:37:01;;;;;;;6.20;4.35;;;20.50;45.20;;;;;;4947943;28;45929;-49
2022/03/29 10:39:48;;;;;;;6.32;4.65;;;20.50;45.20;;;;;;4942946;28;44695;-57
2022/03/29 10:42:32;;;;;;;7.60;4.95;;;20.50;45.30;;;;;;4941844;28;44678;-50
2022/03/29 10:45:23;;;;;;;6.10;4.38;;;20.50;45.20;;;;;;4942439;28;45432;-52
2022/03/29 10:48:09;;;;;;;7.80;4.15;;;20.60;45.20;;;;;;4944448;28;45326;-55
2022/03/29 10:50:51;;;;;;;4.38;3.70;;;20.70;45.10;;;;;;4939317;28;45100;-56
2022/03/29 10:53:34;;;;;;;5.57;4.30;;;20.70;44.90;;;;;;4942437;28;45364;-51
2022/03/29 10:56:19;;;;;;;3.88;3.42;;;20.90;44.80;;;;;;4942231;28;45180;-51
2022/03/29 10:59:02;;;;;;;4.30;3.38;;;21.10;44.70;;;;;;4951814;28;47050;-49
2022/03/29 11:01:32;;;;;;;5.45;3.63;;;21.20;44.50;;;;;;4940301;28;45425;-52
2022/03/29 11:04:02;;;;;;;6.45;3.65;;;21.40;44.40;;;;;;4915873;28;45150;-51
2022/03/29 11:06:27;;;;;;;4.47;3.58;;;21.40;44.20;;;;;;4908273;28;45508;-51
2022/03/29 11:09:15;;;;;;;4.72;3.58;;;21.50;44.10;;;;;;4903799;28;46227;-56
2022/03/29 11:11:43;;;;;;;3.65;2.97;;;21.70;43.90;;;;;;4902292;28;45227;-50
2022/03/29 11:14:27;;;;;;;5.38;3.58;;;21.80;43.90;;;;;;4901622;28;45221;-52
2022/03/29 11:17:13;;;;;;;4.00;3.20;;;21.90;43.80;;;;;;4910538;28;45515;-52
2022/03/29 11:19:48;;;;;;;4.13;3.10;;;22.00;43.70;;;;;;4916161;28;46077;-50
2022/03/29 11:22:34;;;;;;;4.00;3.13;;;22.10;43.70;;;;;;4908217;28;45357;-51
2022/03/29 11:25:02;;;;;;;4.68;2.90;;;22.20;43.60;;;;;;4903162;28;45133;-55
2022/03/29 11:27:31;;;;;;;4.03;3.10;;;22.30;43.60;;;;;;4909354;28;44880;-54
2022/03/29 11:29:57;;;;;;;4.43;2.92;;;22.40;43.60;;;;;;4903596;28;46930;-53
2022/03/29 11:32:22;;;;;;;3.60;2.80;;;22.40;43.50;;;;;;4915627;28;45178;-51
2022/03/29 11:34:55;;;;;;;4.28;3.13;;;22.50;43.50;;;;;;4903006;28;45178;-52
2022/03/29 11:37:28;;;;;;;3.55;2.90;;;22.60;43.50;;;;;;4904492;28;45554;-53
2022/03/29 11:39:54;;;;;;;4.70;3.00;;;22.70;43.40;;;;;;4902324;28;45904;-53
2022/03/29 11:42:20;;;;;;;4.07;3.03;;;22.80;43.40;;;;;;4899270;29;45410;-52
2022/03/29 11:44:49;;;;;;;3.13;2.83;;;22.80;43.20;;;;;;4900968;28;45372;-50
2022/03/29 11:47:14;;;;;;;4.07;3.10;;;22.90;43.20;;;;;;4908849;28;45567;-50
2022/03/29 11:49:41;;;;;;;4.15;3.25;;;23.00;43.20;;;;;;4908734;28;46206;-52
2022/03/29 11:52:11;;;;;;;3.38;2.63;;;23.00;43.10;;;;;;4906865;28;45742;-50
2022/03/29 11:54:57;;;;;;;3.92;2.90;;;23.10;43.20;;;;;;4901942;29;45169;-53
2022/03/29 11:57:32;;;;;;;4.55;2.35;;;23.10;43.00;;;;;;4892457;28;45671;-51
2022/03/29 11:59:58;;;;;;;3.92;3.10;;;23.20;43.00;;;;;;4896208;28;46368;-49
2022/03/29 12:02:25;;;;;;;3.58;2.83;;;23.30;43.00;;;;;;4892824;28;45233;-53
2022/03/29 12:04:51;;;;;;;4.10;3.05;;;23.30;43.00;;;;;;4933759;28;45352;-52
2022/03/29 12:07:17;;;;;;;2.92;2.40;;;23.40;43.00;;;;;;4941113;28;45152;-52
2022/03/29 12:09:49;;;;;;;3.70;2.63;;;23.40;42.90;;;;;;4939419;28;46164;-50
2022/03/29 12:12:15;;;;;;;3.58;2.85;;;23.50;42.90;;;;;;4938654;28;45220;-50
2022/03/29 12:14:40;;;;;;;3.97;2.72;;;23.50;42.90;;;;;;4938240;28;44714;-49
2022/03/29 12:17:08;;;;;;;3.40;2.53;;;23.60;42.80;;;;;;4939401;28;44888;-56
2022/03/29 12:19:35;;;;;;;4.47;3.10;;;23.60;42.80;;;;;;4939959;28;46290;-58
2022/03/29 12:22:01;;;;;;;4.53;2.90;;;23.70;42.80;;;;;;4937688;28;45396;-52
2022/03/29 12:24:43;;;;;;;4.70;2.60;;;23.70;42.80;;;;;;4939808;28;44720;-53
2022/03/29 12:27:13;;;;;;;3.80;2.90;;;23.80;42.70;;;;;;4938482;28;45332;-51
2022/03/29 12:29:41;;;;;;;3.20;2.72;;;23.80;42.70;;;;;;4919209;28;47118;-54
2022/03/29 12:32:07;;;;;;;3.67;2.67;;;23.90;42.70;;;;;;4928496;28;45328;-55
2022/03/29 12:34:33;;;;;;;3.08;2.75;;;23.90;42.70;;;;;;4924447;28;45488;-57
2022/03/29 12:37:03;;;;;;;2.80;2.35;;;23.90;42.70;;;;;;4920385;28;45648;-53
2022/03/29 12:39:37;;;;;;;3.63;2.70;;;24.00;42.70;;;;;;4932974;28;46165;-54
2022/03/29 12:42:03;;;;;;;3.30;3.00;;;24.00;42.60;;;;;;4939958;28;45016;-54
2022/03/29 12:44:46;;;;;;;2.47;2.10;;;24.00;42.70;;;;;;4947614;28;45255;-53
2022/03/29 12:47:12;;;;;;;2.95;2.65;;;24.00;42.70;;;;;;4937005;28;45287;-54
2022/03/29 12:49:38;;;;;;;3.60;2.80;;;23.90;42.80;;;;;;4921669;28;46214;-54
2022/03/29 12:52:05;;;;;;;4.05;2.78;;;24.00;42.90;;;;;;4937427;28;45553;-55
2022/03/29 12:54:47;;;;;;;3.10;2.53;;;23.90;42.90;;;;;;4926423;28;45422;-55
2022/03/29 12:57:15;;;;;;;4.80;3.55;;;23.90;42.90;;;;;;4934181;28;45013;-52
2022/03/29 12:59:42;;;;;;;3.42;2.72;;;23.90;43.00;;;;;;4933981;28;46019;-56
2022/03/29 13:02:22;;;;;;;3.63;3.00;;;23.80;43.10;;;;;;4937262;28;45473;-52
2022/03/29 13:04:52;;;;;;;3.15;2.58;;;23.80;43.00;;;;;;4937895;28;45254;-53
2022/03/29 13:07:44;;;;;;;3.65;3.10;;;23.80;43.10;;;;;;4937846;28;45425;-53
2022/03/29 13:10:13;;;;;;;3.25;2.75;;;23.80;43.10;;;;;;4937675;28;46176;-52
2022/03/29 13:12:58;;;;;;;4.05;3.35;;;23.70;43.20;;;;;;4937142;28;45277;-55
2022/03/29 13:16:05;;;;;;;3.78;2.47;;;23.70;43.30;;;;;;4937480;28;45237;-50
2022/03/29 13:18:32;;;;;;;4.90;3.00;;;23.70;43.40;;;;;;4934654;28;44914;-49
2022/03/29 13:21:23;;;;;;;3.60;2.70;;;23.70;43.50;;;;;;4938950;28;45438;-53
2022/03/29 13:23:50;;;;;;;2.83;2.45;;;23.60;43.40;;;;;;4938800;28;45398;-52
2022/03/29 13:26:21;;;;;;;3.83;2.70;;;23.60;43.50;;;;;;4936482;28;44966;-51
2022/03/29 13:28:47;;;;;;;4.60;2.90;;;23.60;43.60;;;;;;4938121;28;45276;-55
2022/03/29 13:31:14;;;;;;;2.90;2.50;;;23.50;43.60;;;;;;4937420;28;45904;-55
2022/03/29 13:33:41;;;;;;;3.53;3.03;;;23.50;43.60;;;;;;4923086;28;45458;-52
2022/03/29 13:36:09;;;;;;;2.92;2.38;;;23.50;43.70;;;;;;4939280;28;45536;-52
2022/03/29 13:38:35;;;;;;;3.88;3.20;;;23.50;43.70;;;;;;4936080;28;46328;-51
2022/03/29 13:41:01;;;;;;;4.63;2.92;;;23.50;43.80;;;;;;4923818;28;45166;-52
2022/03/29 13:43:26;;;;;;;4.35;2.92;;;23.50;43.80;;;;;;4933999;28;44711;-51
2022/03/29 13:45:52;;;;;;;4.63;2.78;;;23.50;43.90;;;;;;4928283;28;45961;-52
2022/03/29 13:48:17;;;;;;;3.42;2.70;;;23.40;43.90;;;;;;4933399;28;45224;-49
2022/03/29 13:50:43;;;;;;;4.13;2.90;;;23.40;43.90;;;;;;4923280;28;45211;-55
2022/03/29 13:53:09;;;;;;;3.78;2.80;;;23.40;43.90;;;;;;4940174;28;45306;-55
2022/03/29 13:55:35;;;;;;;3.72;2.67;;;23.40;44.00;;;;;;4938460;28;45141;-57
2022/03/29 13:58:04;;;;;;;3.28;2.97;;;23.30;44.00;;;;;;4938052;28;44701;-51
2022/03/29 14:00:33;;;;;;;3.65;2.78;;;23.30;44.00;;;;;;4933798;28;46109;-54
2022/03/29 14:02:59;;;;;;;3.10;2.60;;;23.30;44.10;;;;;;4939875;28;44818;-50
2022/03/29 14:05:31;;;;;;;2.63;2.35;;;23.30;44.10;;;;;;4942124;28;45346;-51
2022/03/29 14:07:57;;;;;;;3.90;3.17;;;23.30;44.10;;;;;;4909467;28;44743;-50
2022/03/29 14:10:23;;;;;;;4.32;3.10;;;23.30;44.20;;;;;;4939179;28;46161;-55
2022/03/29 14:12:48;;;;;;;3.28;2.75;;;23.30;44.30;;;;;;4938511;28;45291;-54
2022/03/29 14:15:14;;;;;;;3.85;2.83;;;23.20;44.30;;;;;;4935588;28;45375;-54
2022/03/29 14:17:40;;;;;;;3.25;2.83;;;23.20;44.30;;;;;;4940234;28;44802;-53
2022/03/29 14:20:06;;;;;;;3.10;2.60;;;23.20;44.30;;;;;;4936683;28;44901;-52
2022/03/29 14:22:32;;;;;;;3.92;3.17;;;23.20;44.30;;;;;;4940524;28;45464;-52
2022/03/29 14:24:59;;;;;;;3.35;2.90;;;23.20;44.40;;;;;;4939355;28;45542;-54
2022/03/29 14:27:25;;;;;;;4.85;3.55;;;23.20;44.40;;;;;;4939856;28;44723;-54
2022/03/29 14:29:50;;;;;;;3.90;2.88;;;23.10;44.40;;;;;;4941678;28;45272;-54
2022/03/29 14:32:16;;;;;;;3.05;2.75;;;23.10;44.40;;;;;;4941069;28;44744;-52
2022/03/29 14:34:42;;;;;;;5.55;2.67;;;23.10;44.40;;;;;;4938959;28;45355;-53
2022/03/29 14:37:08;;;;;;;3.30;3.00;;;23.10;44.50;;;;;;4940346;28;45520;-55
2022/03/29 14:39:33;;;;;;;4.35;2.80;;;23.10;44.50;;;;;;4922968;28;46015;-56
2022/03/29 14:41:59;;;;;;;3.20;2.75;;;23.10;44.50;;;;;;4937491;28;45243;-52
2022/03/29 14:44:25;;;;;;;3.58;2.80;;;23.10;44.60;;;;;;4936085;28;45276;-51
2022/03/29 14:46:56;;;;;;;3.08;2.72;;;23.10;44.60;;;;;;4936020;28;45243;-49
2022/03/29 14:49:23;;;;;;;3.20;2.50;;;23.10;44.50;;;;;;4929319;28;45291;-51
2022/03/29 14:51:49;;;;;;;3.58;2.90;;;23.00;44.50;;;;;;4940468;28;45196;-54
2022/03/29 14:54:14;;;;;;;4.85;2.80;;;23.00;44.60;;;;;;4940425;28;45251;-55
2022/03/29 14:56:40;;;;;;;3.33;2.47;;;23.00;44.60;;;;;;4942445;28;45769;-57
2022/03/29 14:59:05;;;;;;;3.85;3.17;;;23.00;44.60;;;;;;4938461;28;47246;-51
2022/03/29 15:01:31;;;;;;;3.15;2.63;;;23.00;44.70;;;;;;4937438;28;44816;-53
2022/03/29 15:03:56;;;;;;;3.13;2.80;;;22.90;44.70;;;;;;4934325;28;44770;-54
2022/03/29 15:06:22;;;;;;;4.35;2.88;;;22.90;44.70;;;;;;4940117;28;45288;-54
2022/03/29 15:08:48;;;;;;;4.20;2.95;;;22.90;44.70;;;;;;4939054;28;45219;-53
2022/03/29 15:11:13;;;;;;;3.28;2.83;;;22.90;44.80;;;;;;4938757;28;44704;-52
2022/03/29 15:13:39;;;;;;;3.65;3.15;;;22.90;44.80;;;;;;4941227;28;45310;-53
2022/03/29 15:16:05;;;;;;;3.78;2.70;;;22.90;44.90;;;;;;4940094;28;47731;-53
2022/03/29 15:18:31;;;;;;;3.67;3.20;;;22.80;45.00;;;;;;4938281;28;46900;-58
2022/03/29 15:20:56;;;;;;;4.13;3.33;;;22.80;45.00;;;;;;4938584;28;45144;-51
2022/03/29 15:23:22;;;;;;;3.50;2.95;;;22.80;45.00;;;;;;4937702;28;45232;-52
2022/03/29 15:25:48;;;;;;;4.35;2.78;;;22.80;45.10;;;;;;4936571;28;45581;-52
2022/03/29 15:28:13;;;;;;;4.43;2.97;;;22.70;45.10;;;;;;4939821;28;45988;-49
2022/03/29 15:30:39;;;;;;;3.60;2.90;;;22.70;45.20;;;;;;4938088;28;44689;-55
2022/03/29 15:33:05;;;;;;;3.22;2.92;;;22.70;45.20;;;;;;4940269;28;45481;-54
2022/03/29 15:35:30;;;;;;;3.00;2.70;;;22.70;45.30;;;;;;4939691;28;45385;-51
2022/03/29 15:37:56;;;;;;;3.75;2.63;;;22.60;45.20;;;;;;4939488;28;45505;-54
2022/03/29 15:40:21;;;;;;;4.18;2.85;;;22.60;45.30;;;;;;4922887;28;47633;-52
2022/03/29 15:42:47;;;;;;;4.22;2.85;;;22.50;45.30;;;;;;4937382;28;45282;-53
2022/03/29 15:45:13;;;;;;;3.33;3.00;;;22.50;45.40;;;;;;4939530;28;45651;-52
2022/03/29 15:47:38;;;;;;;3.53;2.92;;;22.50;45.40;;;;;;4938393;28;47097;-55
2022/03/29 15:50:06;;;;;;;3.42;3.00;;;22.50;45.50;;;;;;4939509;28;45431;-55
2022/03/29 15:52:32;;;;;;;3.40;2.55;;;22.50;45.50;;;;;;4929600;28;44954;-57
2022/03/29 15:54:57;;;;;;;3.05;2.58;;;22.40;45.50;;;;;;4926893;28;45262;-59